sensor_id;sensor_type;location;lat;lon;timestamp;P1;durP1;ratioP1;P2;durP2;ratioP2
67747;SDS011;54543;50.712;6.070;2023-06-26T00:02:00;5.57;;;4.38;;
67747;SDS011;54543;50.712;6.070;2023-06-26T00:04:26;5.57;;;4.38;;
67747;SDS011;54543;50.712;6.070;2023-06-26T00:06:51;5.75;;;4.30;;
67747;SDS011;54543;50.712;6.070;2023-06-26T00:09:17;6.70;;;4.75;;
67747;SDS011;54543;50.712;6.070;2023-06-26T00:11:42;6.22;;;5.07;;
67747;SDS011;54543;50.712;6.070;2023-06-26T00:14:08;4.90;;;3.83;;
67747;SDS011;54543;50.712;6.070;2023-06-26T00:16:34;5.38;;;4.07;;
67747;SDS011;54543;50.712;6.070;2023-06-26T00:18:59;5.03;;;4.05;;
67747;SDS011;54543;50.712;6.070;2023-06-26T00:21:25;5.05;;;4.10;;
67747;SDS011;54543;50.712;6.070;2023-06-26T00:23:50;5.68;;;4.25;;
67747;SDS011;54543;50.712;6.070;2023-06-26T00:26:16;5.50;;;4.10;;
67747;SDS011;54543;50.712;6.070;2023-06-26T00:28:42;5.22;;;4.15;;
67747;SDS011;54543;50.712;6.070;2023-06-26T00:31:07;6.47;;;3.50;;
67747;SDS011;54543;50.712;6.070;2023-06-26T00:33:33;6.25;;;3.75;;
67747;SDS011;54543;50.712;6.070;2023-06-26T00:35:59;5.40;;;4.20;;
67747;SDS011;54543;50.712;6.070;2023-06-26T00:38:25;4.68;;;3.67;;
67747;SDS011;54543;50.712;6.070;2023-06-26T00:40:50;4.95;;;3.90;;
67747;SDS011;54543;50.712;6.070;2023-06-26T00:43:16;6.28;;;4.10;;
67747;SDS011;54543;50.712;6.070;2023-06-26T00:45:41;5.28;;;4.13;;
67747;SDS011;54543;50.712;6.070;2023-06-26T00:48:07;6.20;;;3.70;;
67747;SDS011;54543;50.712;6.070;2023-06-26T00:50:37;4.10;;;3.45;;
67747;SDS011;54543;50.712;6.070;2023-06-26T00:53:02;4.50;;;3.53;;
67747;SDS011;54543;50.712;6.070;2023-06-26T00:55:29;5.03;;;3.80;;
67747;SDS011;54543;50.712;6.070;2023-06-26T00:57:55;5.43;;;3.65;;
67747;SDS011;54543;50.712;6.070;2023-06-26T01:00:21;4.97;;;3.70;;
67747;SDS011;54543;50.712;6.070;2023-06-26T01:02:46;5.18;;;3.67;;
67747;SDS011;54543;50.712;6.070;2023-06-26T01:05:12;4.70;;;3.60;;
67747;SDS011;54543;50.712;6.070;2023-06-26T01:07:44;4.50;;;3.40;;
67747;SDS011;54543;50.712;6.070;2023-06-26T01:10:09;4.80;;;3.63;;
67747;SDS011;54543;50.712;6.070;2023-06-26T01:12:35;5.35;;;4.18;;
67747;SDS011;54543;50.712;6.070;2023-06-26T01:15:01;4.80;;;3.50;;
67747;SDS011;54543;50.712;6.070;2023-06-26T01:17:27;4.55;;;3.72;;
67747;SDS011;54543;50.712;6.070;2023-06-26T01:20:00;4.40;;;3.33;;
67747;SDS011;54543;50.712;6.070;2023-06-26T01:25:12;6.40;;;4.30;;
67747;SDS011;54543;50.712;6.070;2023-06-26T01:27:45;4.90;;;3.85;;
67747;SDS011;54543;50.712;6.070;2023-06-26T01:30:15;6.03;;;4.60;;
67747;SDS011;54543;50.712;6.070;2023-06-26T01:32:42;5.25;;;4.00;;
67747;SDS011;54543;50.712;6.070;2023-06-26T01:35:08;5.72;;;4.10;;
67747;SDS011;54543;50.712;6.070;2023-06-26T01:37:34;5.88;;;4.25;;
67747;SDS011;54543;50.712;6.070;2023-06-26T01:40:00;5.38;;;4.47;;
67747;SDS011;54543;50.712;6.070;2023-06-26T01:42:25;4.63;;;3.60;;
67747;SDS011;54543;50.712;6.070;2023-06-26T01:44:52;4.40;;;3.65;;
67747;SDS011;54543;50.712;6.070;2023-06-26T01:47:21;6.07;;;4.32;;
67747;SDS011;54543;50.712;6.070;2023-06-26T01:49:54;4.70;;;3.53;;
67747;SDS011;54543;50.712;6.070;2023-06-26T01:52:46;5.10;;;4.10;;
67747;SDS011;54543;50.712;6.070;2023-06-26T01:58:05;5.15;;;4.07;;
67747;SDS011;54543;50.712;6.070;2023-06-26T02:00:31;5.75;;;4.00;;
67747;SDS011;54543;50.712;6.070;2023-06-26T02:02:58;5.03;;;4.13;;
67747;SDS011;54543;50.712;6.070;2023-06-26T02:05:24;5.18;;;4.13;;
67747;SDS011;54543;50.712;6.070;2023-06-26T02:07:50;5.60;;;4.47;;
67747;SDS011;54543;50.712;6.070;2023-06-26T02:10:16;5.68;;;4.18;;
67747;SDS011;54543;50.712;6.070;2023-06-26T02:12:42;5.45;;;4.13;;
67747;SDS011;54543;50.712;6.070;2023-06-26T02:15:08;5.68;;;4.22;;
67747;SDS011;54543;50.712;6.070;2023-06-26T02:17:34;5.45;;;4.03;;
67747;SDS011;54543;50.712;6.070;2023-06-26T02:19:59;4.47;;;3.58;;
67747;SDS011;54543;50.712;6.070;2023-06-26T02:22:25;4.47;;;3.70;;
67747;SDS011;54543;50.712;6.070;2023-06-26T02:24:51;5.15;;;4.13;;
67747;SDS011;54543;50.712;6.070;2023-06-26T02:27:16;5.35;;;4.05;;
67747;SDS011;54543;50.712;6.070;2023-06-26T02:29:42;6.00;;;4.13;;
67747;SDS011;54543;50.712;6.070;2023-06-26T02:32:08;5.40;;;4.15;;
67747;SDS011;54543;50.712;6.070;2023-06-26T02:34:34;5.82;;;4.28;;
67747;SDS011;54543;50.712;6.070;2023-06-26T02:37:00;5.80;;;4.45;;
67747;SDS011;54543;50.712;6.070;2023-06-26T02:39:25;5.05;;;4.28;;
67747;SDS011;54543;50.712;6.070;2023-06-26T02:41:51;5.20;;;4.13;;
67747;SDS011;54543;50.712;6.070;2023-06-26T02:44:17;5.45;;;4.30;;
67747;SDS011;54543;50.712;6.070;2023-06-26T02:46:43;7.55;;;4.50;;
67747;SDS011;54543;50.712;6.070;2023-06-26T02:49:09;5.18;;;4.32;;
67747;SDS011;54543;50.712;6.070;2023-06-26T02:51:34;7.18;;;5.03;;
67747;SDS011;54543;50.712;6.070;2023-06-26T02:54:00;5.95;;;4.57;;
67747;SDS011;54543;50.712;6.070;2023-06-26T02:56:26;5.82;;;4.60;;
67747;SDS011;54543;50.712;6.070;2023-06-26T02:58:55;7.32;;;4.40;;
67747;SDS011;54543;50.712;6.070;2023-06-26T03:01:21;6.47;;;4.80;;
67747;SDS011;54543;50.712;6.070;2023-06-26T03:03:47;6.55;;;4.57;;
67747;SDS011;54543;50.712;6.070;2023-06-26T03:06:13;5.60;;;4.32;;
67747;SDS011;54543;50.712;6.070;2023-06-26T03:08:39;5.38;;;4.22;;
67747;SDS011;54543;50.712;6.070;2023-06-26T03:11:05;7.50;;;4.95;;
67747;SDS011;54543;50.712;6.070;2023-06-26T03:13:32;5.88;;;4.18;;
67747;SDS011;54543;50.712;6.070;2023-06-26T03:15:58;7.50;;;5.00;;
67747;SDS011;54543;50.712;6.070;2023-06-26T03:18:24;5.45;;;4.20;;
67747;SDS011;54543;50.712;6.070;2023-06-26T03:20:50;7.07;;;4.80;;
67747;SDS011;54543;50.712;6.070;2023-06-26T03:23:15;8.02;;;4.63;;
67747;SDS011;54543;50.712;6.070;2023-06-26T03:25:41;5.40;;;4.32;;
67747;SDS011;54543;50.712;6.070;2023-06-26T03:28:06;6.55;;;4.10;;
67747;SDS011;54543;50.712;6.070;2023-06-26T03:30:33;6.40;;;4.07;;
67747;SDS011;54543;50.712;6.070;2023-06-26T03:32:58;5.65;;;4.25;;
67747;SDS011;54543;50.712;6.070;2023-06-26T03:35:24;5.43;;;4.43;;
67747;SDS011;54543;50.712;6.070;2023-06-26T03:37:50;5.53;;;4.28;;
67747;SDS011;54543;50.712;6.070;2023-06-26T03:40:15;6.43;;;4.32;;
67747;SDS011;54543;50.712;6.070;2023-06-26T03:42:41;5.07;;;4.25;;
67747;SDS011;54543;50.712;6.070;2023-06-26T03:45:07;5.15;;;3.35;;
67747;SDS011;54543;50.712;6.070;2023-06-26T03:47:33;5.07;;;4.00;;
67747;SDS011;54543;50.712;6.070;2023-06-26T03:49:58;5.28;;;3.63;;
67747;SDS011;54543;50.712;6.070;2023-06-26T03:52:24;5.15;;;3.92;;
67747;SDS011;54543;50.712;6.070;2023-06-26T03:54:49;5.85;;;4.03;;
67747;SDS011;54543;50.712;6.070;2023-06-26T03:57:15;6.13;;;3.72;;
67747;SDS011;54543;50.712;6.070;2023-06-26T03:59:41;6.78;;;4.38;;
67747;SDS011;54543;50.712;6.070;2023-06-26T04:02:06;5.40;;;4.03;;
67747;SDS011;54543;50.712;6.070;2023-06-26T04:04:32;6.72;;;3.83;;
67747;SDS011;54543;50.712;6.070;2023-06-26T04:06:57;6.57;;;4.35;;
67747;SDS011;54543;50.712;6.070;2023-06-26T04:09:24;5.22;;;3.88;;
67747;SDS011;54543;50.712;6.070;2023-06-26T04:11:50;5.80;;;4.03;;
67747;SDS011;54543;50.712;6.070;2023-06-26T04:14:16;5.57;;;3.85;;
67747;SDS011;54543;50.712;6.070;2023-06-26T04:16:41;4.53;;;3.38;;
67747;SDS011;54543;50.712;6.070;2023-06-26T04:19:07;5.25;;;3.53;;
67747;SDS011;54543;50.712;6.070;2023-06-26T04:21:35;6.50;;;3.53;;
67747;SDS011;54543;50.712;6.070;2023-06-26T04:24:00;5.20;;;3.20;;
67747;SDS011;54543;50.712;6.070;2023-06-26T04:26:26;5.13;;;3.70;;
67747;SDS011;54543;50.712;6.070;2023-06-26T04:28:53;5.47;;;3.63;;
67747;SDS011;54543;50.712;6.070;2023-06-26T04:31:19;5.45;;;3.85;;
67747;SDS011;54543;50.712;6.070;2023-06-26T04:33:45;6.53;;;3.55;;
67747;SDS011;54543;50.712;6.070;2023-06-26T04:36:15;4.65;;;3.10;;
67747;SDS011;54543;50.712;6.070;2023-06-26T04:38:42;4.22;;;2.80;;
67747;SDS011;54543;50.712;6.070;2023-06-26T04:41:07;6.40;;;2.97;;
67747;SDS011;54543;50.712;6.070;2023-06-26T04:43:33;4.72;;;3.38;;
67747;SDS011;54543;50.712;6.070;2023-06-26T04:45:59;4.50;;;2.92;;
67747;SDS011;54543;50.712;6.070;2023-06-26T04:48:24;4.20;;;2.78;;
67747;SDS011;54543;50.712;6.070;2023-06-26T04:50:53;5.22;;;3.00;;
67747;SDS011;54543;50.712;6.070;2023-06-26T04:53:19;5.63;;;3.42;;
67747;SDS011;54543;50.712;6.070;2023-06-26T04:55:46;4.80;;;3.30;;
67747;SDS011;54543;50.712;6.070;2023-06-26T04:58:12;6.53;;;3.55;;
67747;SDS011;54543;50.712;6.070;2023-06-26T05:00:37;5.15;;;3.35;;
67747;SDS011;54543;50.712;6.070;2023-06-26T05:03:03;5.97;;;3.35;;
67747;SDS011;54543;50.712;6.070;2023-06-26T05:05:29;5.50;;;3.85;;
67747;SDS011;54543;50.712;6.070;2023-06-26T05:07:54;7.68;;;3.75;;
67747;SDS011;54543;50.712;6.070;2023-06-26T05:10:21;4.97;;;3.53;;
67747;SDS011;54543;50.712;6.070;2023-06-26T05:12:46;7.15;;;3.30;;
67747;SDS011;54543;50.712;6.070;2023-06-26T05:15:12;4.68;;;2.47;;
67747;SDS011;54543;50.712;6.070;2023-06-26T05:17:37;5.55;;;3.67;;
67747;SDS011;54543;50.712;6.070;2023-06-26T05:20:03;4.25;;;2.70;;
67747;SDS011;54543;50.712;6.070;2023-06-26T05:22:30;5.07;;;3.30;;
67747;SDS011;54543;50.712;6.070;2023-06-26T05:24:58;6.00;;;3.33;;
67747;SDS011;54543;50.712;6.070;2023-06-26T05:27:25;6.15;;;3.20;;
67747;SDS011;54543;50.712;6.070;2023-06-26T05:29:51;7.90;;;3.80;;
67747;SDS011;54543;50.712;6.070;2023-06-26T05:32:17;8.48;;;4.35;;
67747;SDS011;54543;50.712;6.070;2023-06-26T05:34:49;6.35;;;3.80;;
67747;SDS011;54543;50.712;6.070;2023-06-26T05:37:21;7.17;;;3.27;;
67747;SDS011;54543;50.712;6.070;2023-06-26T05:39:47;6.63;;;3.22;;
67747;SDS011;54543;50.712;6.070;2023-06-26T05:42:13;7.60;;;4.22;;
67747;SDS011;54543;50.712;6.070;2023-06-26T05:44:39;6.18;;;3.38;;
67747;SDS011;54543;50.712;6.070;2023-06-26T05:47:05;8.25;;;4.13;;
67747;SDS011;54543;50.712;6.070;2023-06-26T05:49:30;7.60;;;4.20;;
67747;SDS011;54543;50.712;6.070;2023-06-26T05:51:56;5.60;;;3.83;;
67747;SDS011;54543;50.712;6.070;2023-06-26T05:54:23;8.70;;;4.32;;
67747;SDS011;54543;50.712;6.070;2023-06-26T05:56:49;10.05;;;4.32;;
67747;SDS011;54543;50.712;6.070;2023-06-26T05:59:18;5.40;;;3.97;;
67747;SDS011;54543;50.712;6.070;2023-06-26T06:01:44;5.82;;;3.53;;
67747;SDS011;54543;50.712;6.070;2023-06-26T06:04:10;8.98;;;4.07;;
67747;SDS011;54543;50.712;6.070;2023-06-26T06:06:35;8.57;;;5.20;;
67747;SDS011;54543;50.712;6.070;2023-06-26T06:09:01;10.77;;;4.25;;
67747;SDS011;54543;50.712;6.070;2023-06-26T06:11:26;7.15;;;4.28;;
67747;SDS011;54543;50.712;6.070;2023-06-26T06:13:52;7.47;;;4.00;;
67747;SDS011;54543;50.712;6.070;2023-06-26T06:16:18;7.18;;;4.10;;
67747;SDS011;54543;50.712;6.070;2023-06-26T06:18:43;8.00;;;4.55;;
67747;SDS011;54543;50.712;6.070;2023-06-26T06:21:09;10.85;;;4.50;;
67747;SDS011;54543;50.712;6.070;2023-06-26T06:23:34;9.30;;;4.90;;
67747;SDS011;54543;50.712;6.070;2023-06-26T06:26:01;8.95;;;4.93;;
67747;SDS011;54543;50.712;6.070;2023-06-26T06:28:27;8.80;;;4.57;;
67747;SDS011;54543;50.712;6.070;2023-06-26T06:30:52;5.95;;;4.38;;
67747;SDS011;54543;50.712;6.070;2023-06-26T06:33:18;8.52;;;4.90;;
67747;SDS011;54543;50.712;6.070;2023-06-26T06:35:43;7.00;;;4.25;;
67747;SDS011;54543;50.712;6.070;2023-06-26T06:38:09;10.68;;;4.85;;
67747;SDS011;54543;50.712;6.070;2023-06-26T06:40:35;5.35;;;4.03;;
67747;SDS011;54543;50.712;6.070;2023-06-26T06:43:00;6.88;;;4.38;;
67747;SDS011;54543;50.712;6.070;2023-06-26T06:45:26;7.97;;;4.63;;
67747;SDS011;54543;50.712;6.070;2023-06-26T06:47:51;10.73;;;4.78;;
67747;SDS011;54543;50.712;6.070;2023-06-26T06:50:17;7.40;;;4.50;;
67747;SDS011;54543;50.712;6.070;2023-06-26T06:52:43;9.82;;;3.75;;
67747;SDS011;54543;50.712;6.070;2023-06-26T06:55:09;9.32;;;4.60;;
67747;SDS011;54543;50.712;6.070;2023-06-26T06:57:35;10.65;;;4.70;;
67747;SDS011;54543;50.712;6.070;2023-06-26T07:00:06;5.68;;;3.42;;
67747;SDS011;54543;50.712;6.070;2023-06-26T07:02:37;6.90;;;3.90;;
67747;SDS011;54543;50.712;6.070;2023-06-26T07:05:03;9.48;;;4.75;;
67747;SDS011;54543;50.712;6.070;2023-06-26T07:07:30;5.95;;;3.42;;
67747;SDS011;54543;50.712;6.070;2023-06-26T07:10:00;6.35;;;4.03;;
67747;SDS011;54543;50.712;6.070;2023-06-26T07:12:27;6.93;;;3.80;;
67747;SDS011;54543;50.712;6.070;2023-06-26T07:14:54;8.45;;;3.30;;
67747;SDS011;54543;50.712;6.070;2023-06-26T07:17:20;8.32;;;3.72;;
67747;SDS011;54543;50.712;6.070;2023-06-26T07:19:46;8.38;;;4.10;;
67747;SDS011;54543;50.712;6.070;2023-06-26T07:22:12;9.73;;;3.55;;
67747;SDS011;54543;50.712;6.070;2023-06-26T07:24:38;6.47;;;4.22;;
67747;SDS011;54543;50.712;6.070;2023-06-26T07:27:03;10.15;;;4.68;;
67747;SDS011;54543;50.712;6.070;2023-06-26T07:29:29;6.68;;;3.53;;
67747;SDS011;54543;50.712;6.070;2023-06-26T07:31:54;7.25;;;3.58;;
67747;SDS011;54543;50.712;6.070;2023-06-26T07:34:20;7.28;;;3.60;;
67747;SDS011;54543;50.712;6.070;2023-06-26T07:36:45;5.68;;;3.22;;
67747;SDS011;54543;50.712;6.070;2023-06-26T07:39:11;7.55;;;3.80;;
67747;SDS011;54543;50.712;6.070;2023-06-26T07:41:36;8.70;;;3.75;;
67747;SDS011;54543;50.712;6.070;2023-06-26T07:44:02;5.95;;;3.13;;
67747;SDS011;54543;50.712;6.070;2023-06-26T07:46:29;4.78;;;2.97;;
67747;SDS011;54543;50.712;6.070;2023-06-26T07:48:55;6.13;;;3.15;;
67747;SDS011;54543;50.712;6.070;2023-06-26T07:51:20;7.05;;;3.63;;
67747;SDS011;54543;50.712;6.070;2023-06-26T07:53:46;5.43;;;3.13;;
67747;SDS011;54543;50.712;6.070;2023-06-26T07:56:12;7.53;;;4.10;;
67747;SDS011;54543;50.712;6.070;2023-06-26T07:58:38;8.40;;;3.70;;
67747;SDS011;54543;50.712;6.070;2023-06-26T08:01:04;6.53;;;3.33;;
67747;SDS011;54543;50.712;6.070;2023-06-26T08:03:29;8.75;;;3.88;;
67747;SDS011;54543;50.712;6.070;2023-06-26T08:05:55;7.93;;;3.33;;
67747;SDS011;54543;50.712;6.070;2023-06-26T08:08:20;8.02;;;3.30;;
67747;SDS011;54543;50.712;6.070;2023-06-26T08:10:46;9.90;;;4.03;;
67747;SDS011;54543;50.712;6.070;2023-06-26T08:13:12;6.82;;;3.40;;
67747;SDS011;54543;50.712;6.070;2023-06-26T08:15:37;6.22;;;2.92;;
67747;SDS011;54543;50.712;6.070;2023-06-26T08:18:04;4.63;;;2.67;;
67747;SDS011;54543;50.712;6.070;2023-06-26T08:20:30;5.65;;;2.97;;
67747;SDS011;54543;50.712;6.070;2023-06-26T08:22:55;10.05;;;3.97;;
67747;SDS011;54543;50.712;6.070;2023-06-26T08:25:20;7.18;;;2.88;;
67747;SDS011;54543;50.712;6.070;2023-06-26T08:27:46;8.27;;;3.38;;
67747;SDS011;54543;50.712;6.070;2023-06-26T08:30:11;8.27;;;3.38;;
67747;SDS011;54543;50.712;6.070;2023-06-26T08:32:38;5.20;;;2.60;;
67747;SDS011;54543;50.712;6.070;2023-06-26T08:35:05;9.80;;;3.53;;
67747;SDS011;54543;50.712;6.070;2023-06-26T08:37:31;7.95;;;3.70;;
67747;SDS011;54543;50.712;6.070;2023-06-26T08:39:58;6.25;;;3.08;;
67747;SDS011;54543;50.712;6.070;2023-06-26T08:42:25;6.15;;;3.10;;
67747;SDS011;54543;50.712;6.070;2023-06-26T08:44:50;8.18;;;3.08;;
67747;SDS011;54543;50.712;6.070;2023-06-26T08:47:16;6.55;;;3.00;;
67747;SDS011;54543;50.712;6.070;2023-06-26T08:49:43;4.88;;;2.90;;
67747;SDS011;54543;50.712;6.070;2023-06-26T08:52:28;4.78;;;2.50;;
67747;SDS011;54543;50.712;6.070;2023-06-26T08:54:58;4.82;;;2.70;;
67747;SDS011;54543;50.712;6.070;2023-06-26T08:57:26;8.80;;;2.85;;
67747;SDS011;54543;50.712;6.070;2023-06-26T08:59:53;5.03;;;2.38;;
67747;SDS011;54543;50.712;6.070;2023-06-26T09:02:19;4.38;;;2.17;;
67747;SDS011;54543;50.712;6.070;2023-06-26T09:04:49;3.90;;;2.15;;
67747;SDS011;54543;50.712;6.070;2023-06-26T09:07:15;5.18;;;2.28;;
67747;SDS011;54543;50.712;6.070;2023-06-26T09:09:41;5.18;;;2.40;;
67747;SDS011;54543;50.712;6.070;2023-06-26T09:12:08;4.13;;;2.33;;
67747;SDS011;54543;50.712;6.070;2023-06-26T09:14:35;5.20;;;2.90;;
67747;SDS011;54543;50.712;6.070;2023-06-26T09:17:02;5.82;;;2.55;;
67747;SDS011;54543;50.712;6.070;2023-06-26T09:19:28;4.70;;;2.45;;
67747;SDS011;54543;50.712;6.070;2023-06-26T09:21:53;4.82;;;2.47;;
67747;SDS011;54543;50.712;6.070;2023-06-26T09:24:19;3.10;;;1.90;;
67747;SDS011;54543;50.712;6.070;2023-06-26T09:26:46;5.28;;;2.30;;
67747;SDS011;54543;50.712;6.070;2023-06-26T09:29:13;6.93;;;2.60;;
67747;SDS011;54543;50.712;6.070;2023-06-26T09:31:40;8.02;;;3.25;;
67747;SDS011;54543;50.712;6.070;2023-06-26T09:34:06;4.72;;;2.10;;
67747;SDS011;54543;50.712;6.070;2023-06-26T09:36:32;3.50;;;1.88;;
67747;SDS011;54543;50.712;6.070;2023-06-26T09:39:01;5.75;;;2.33;;
67747;SDS011;54543;50.712;6.070;2023-06-26T09:41:32;4.43;;;1.88;;
67747;SDS011;54543;50.712;6.070;2023-06-26T09:44:00;3.67;;;1.98;;
67747;SDS011;54543;50.712;6.070;2023-06-26T09:46:27;3.83;;;2.05;;
67747;SDS011;54543;50.712;6.070;2023-06-26T09:49:10;3.17;;;1.90;;
67747;SDS011;54543;50.712;6.070;2023-06-26T09:51:36;4.93;;;2.10;;
67747;SDS011;54543;50.712;6.070;2023-06-26T09:54:03;3.03;;;2.28;;
67747;SDS011;54543;50.712;6.070;2023-06-26T09:56:30;5.15;;;2.33;;
67747;SDS011;54543;50.712;6.070;2023-06-26T09:58:57;4.13;;;2.30;;
67747;SDS011;54543;50.712;6.070;2023-06-26T10:01:26;3.90;;;2.00;;
67747;SDS011;54543;50.712;6.070;2023-06-26T10:03:53;3.80;;;1.70;;
67747;SDS011;54543;50.712;6.070;2023-06-26T10:06:23;5.80;;;2.50;;
67747;SDS011;54543;50.712;6.070;2023-06-26T10:08:53;5.15;;;2.00;;
67747;SDS011;54543;50.712;6.070;2023-06-26T10:11:21;4.13;;;1.83;;
67747;SDS011;54543;50.712;6.070;2023-06-26T10:13:47;5.32;;;2.00;;
67747;SDS011;54543;50.712;6.070;2023-06-26T10:16:21;6.18;;;2.38;;
67747;SDS011;54543;50.712;6.070;2023-06-26T10:21:24;3.38;;;1.70;;
67747;SDS011;54543;50.712;6.070;2023-06-26T10:23:53;2.25;;;1.52;;
67747;SDS011;54543;50.712;6.070;2023-06-26T10:26:20;4.40;;;2.22;;
67747;SDS011;54543;50.712;6.070;2023-06-26T10:28:48;4.68;;;2.10;;
67747;SDS011;54543;50.712;6.070;2023-06-26T10:31:17;3.35;;;1.80;;
67747;SDS011;54543;50.712;6.070;2023-06-26T10:33:49;5.13;;;2.13;;
67747;SDS011;54543;50.712;6.070;2023-06-26T10:36:16;2.45;;;1.92;;
67747;SDS011;54543;50.712;6.070;2023-06-26T10:38:50;3.85;;;1.48;;
67747;SDS011;54543;50.712;6.070;2023-06-26T10:41:20;5.10;;;1.90;;
67747;SDS011;54543;50.712;6.070;2023-06-26T10:44:10;2.38;;;1.50;;
67747;SDS011;54543;50.712;6.070;2023-06-26T10:46:52;3.38;;;2.10;;
67747;SDS011;54543;50.712;6.070;2023-06-26T10:49:25;4.43;;;2.03;;
67747;SDS011;54543;50.712;6.070;2023-06-26T10:51:53;5.22;;;2.05;;
67747;SDS011;54543;50.712;6.070;2023-06-26T10:54:22;4.35;;;1.92;;
67747;SDS011;54543;50.712;6.070;2023-06-26T10:56:48;2.58;;;1.63;;
67747;SDS011;54543;50.712;6.070;2023-06-26T10:59:16;3.03;;;1.80;;
67747;SDS011;54543;50.712;6.070;2023-06-26T11:01:43;3.22;;;2.08;;
67747;SDS011;54543;50.712;6.070;2023-06-26T11:04:11;4.70;;;2.00;;
67747;SDS011;54543;50.712;6.070;2023-06-26T11:06:37;3.63;;;1.90;;
67747;SDS011;54543;50.712;6.070;2023-06-26T11:14:17;5.05;;;2.03;;
67747;SDS011;54543;50.712;6.070;2023-06-26T11:16:43;3.00;;;1.60;;
67747;SDS011;54543;50.712;6.070;2023-06-26T11:19:09;3.30;;;1.98;;
67747;SDS011;54543;50.712;6.070;2023-06-26T11:21:36;5.30;;;1.90;;
67747;SDS011;54543;50.712;6.070;2023-06-26T11:24:04;3.65;;;1.92;;
67747;SDS011;54543;50.712;6.070;2023-06-26T11:26:31;6.10;;;1.95;;
67747;SDS011;54543;50.712;6.070;2023-06-26T11:29:03;5.00;;;1.85;;
67747;SDS011;54543;50.712;6.070;2023-06-26T11:31:30;2.53;;;1.50;;
67747;SDS011;54543;50.712;6.070;2023-06-26T11:34:00;2.45;;;1.63;;
67747;SDS011;54543;50.712;6.070;2023-06-26T11:36:37;3.25;;;1.50;;
67747;SDS011;54543;50.712;6.070;2023-06-26T11:39:04;4.97;;;2.25;;
67747;SDS011;54543;50.712;6.070;2023-06-26T11:41:32;3.25;;;1.83;;
67747;SDS011;54543;50.712;6.070;2023-06-26T11:44:02;4.50;;;1.73;;
67747;SDS011;54543;50.712;6.070;2023-06-26T11:46:29;3.53;;;1.83;;
67747;SDS011;54543;50.712;6.070;2023-06-26T11:48:56;3.83;;;2.20;;
67747;SDS011;54543;50.712;6.070;2023-06-26T11:51:21;3.85;;;1.80;;
67747;SDS011;54543;50.712;6.070;2023-06-26T11:53:47;5.55;;;1.77;;
67747;SDS011;54543;50.712;6.070;2023-06-26T11:56:14;2.90;;;1.40;;
67747;SDS011;54543;50.712;6.070;2023-06-26T12:04:03;1.98;;;1.52;;
67747;SDS011;54543;50.712;6.070;2023-06-26T12:06:37;3.22;;;1.45;;
67747;SDS011;54543;50.712;6.070;2023-06-26T12:09:05;4.10;;;1.90;;
67747;SDS011;54543;50.712;6.070;2023-06-26T12:11:34;5.20;;;1.95;;
67747;SDS011;54543;50.712;6.070;2023-06-26T12:14:02;3.50;;;1.88;;
67747;SDS011;54543;50.712;6.070;2023-06-26T12:16:30;4.03;;;1.70;;
67747;SDS011;54543;50.712;6.070;2023-06-26T12:18:58;4.85;;;1.90;;
67747;SDS011;54543;50.712;6.070;2023-06-26T12:21:28;3.00;;;1.40;;
67747;SDS011;54543;50.712;6.070;2023-06-26T12:24:02;3.72;;;1.90;;
67747;SDS011;54543;50.712;6.070;2023-06-26T12:26:29;4.50;;;2.10;;
67747;SDS011;54543;50.712;6.070;2023-06-26T12:29:05;4.07;;;2.05;;
67747;SDS011;54543;50.712;6.070;2023-06-26T12:31:31;5.78;;;1.70;;
67747;SDS011;54543;50.712;6.070;2023-06-26T12:33:58;3.13;;;1.70;;
67747;SDS011;54543;50.712;6.070;2023-06-26T12:36:24;3.00;;;1.52;;
67747;SDS011;54543;50.712;6.070;2023-06-26T12:38:50;3.15;;;1.63;;
67747;SDS011;54543;50.712;6.070;2023-06-26T12:41:17;3.00;;;1.45;;
67747;SDS011;54543;50.712;6.070;2023-06-26T12:43:45;3.05;;;1.50;;
67747;SDS011;54543;50.712;6.070;2023-06-26T12:46:11;2.47;;;1.40;;
67747;SDS011;54543;50.712;6.070;2023-06-26T12:48:43;2.97;;;1.67;;
67747;SDS011;54543;50.712;6.070;2023-06-26T12:51:12;2.97;;;1.10;;
67747;SDS011;54543;50.712;6.070;2023-06-26T12:53:39;2.55;;;1.48;;
67747;SDS011;54543;50.712;6.070;2023-06-26T12:56:05;1.98;;;1.17;;
67747;SDS011;54543;50.712;6.070;2023-06-26T12:58:32;3.45;;;1.30;;
67747;SDS011;54543;50.712;6.070;2023-06-26T13:00:58;2.83;;;1.60;;
67747;SDS011;54543;50.712;6.070;2023-06-26T13:03:24;2.60;;;1.58;;
67747;SDS011;54543;50.712;6.070;2023-06-26T13:05:50;4.60;;;1.50;;
67747;SDS011;54543;50.712;6.070;2023-06-26T13:08:16;3.85;;;1.50;;
67747;SDS011;54543;50.712;6.070;2023-06-26T13:10:44;2.75;;;1.17;;
67747;SDS011;54543;50.712;6.070;2023-06-26T13:13:10;3.65;;;1.40;;
67747;SDS011;54543;50.712;6.070;2023-06-26T13:15:36;3.92;;;1.63;;
67747;SDS011;54543;50.712;6.070;2023-06-26T13:18:02;2.03;;;1.48;;
67747;SDS011;54543;50.712;6.070;2023-06-26T13:20:27;9.02;;;2.00;;
67747;SDS011;54543;50.712;6.070;2023-06-26T13:22:53;2.97;;;1.50;;
67747;SDS011;54543;50.712;6.070;2023-06-26T13:25:20;2.72;;;1.42;;
67747;SDS011;54543;50.712;6.070;2023-06-26T13:27:46;2.70;;;1.50;;
67747;SDS011;54543;50.712;6.070;2023-06-26T13:30:12;2.70;;;1.30;;
67747;SDS011;54543;50.712;6.070;2023-06-26T13:32:39;3.35;;;1.70;;
67747;SDS011;54543;50.712;6.070;2023-06-26T13:35:04;3.10;;;1.50;;
67747;SDS011;54543;50.712;6.070;2023-06-26T13:37:31;6.43;;;1.90;;
67747;SDS011;54543;50.712;6.070;2023-06-26T13:39:57;5.50;;;1.60;;
67747;SDS011;54543;50.712;6.070;2023-06-26T13:42:24;2.83;;;1.73;;
67747;SDS011;54543;50.712;6.070;2023-06-26T13:44:50;3.08;;;1.33;;
67747;SDS011;54543;50.712;6.070;2023-06-26T13:47:15;2.30;;;1.60;;
67747;SDS011;54543;50.712;6.070;2023-06-26T13:49:41;3.67;;;1.92;;
67747;SDS011;54543;50.712;6.070;2023-06-26T13:52:07;4.68;;;1.60;;
67747;SDS011;54543;50.712;6.070;2023-06-26T13:54:36;2.85;;;1.65;;
67747;SDS011;54543;50.712;6.070;2023-06-26T13:57:04;2.22;;;1.50;;
67747;SDS011;54543;50.712;6.070;2023-06-26T13:59:30;4.18;;;1.63;;
67747;SDS011;54543;50.712;6.070;2023-06-26T14:01:56;2.90;;;1.90;;
67747;SDS011;54543;50.712;6.070;2023-06-26T14:04:21;2.55;;;1.30;;
67747;SDS011;54543;50.712;6.070;2023-06-26T14:06:47;2.97;;;1.95;;
67747;SDS011;54543;50.712;6.070;2023-06-26T14:09:12;3.17;;;1.30;;
67747;SDS011;54543;50.712;6.070;2023-06-26T14:11:38;3.40;;;1.65;;
67747;SDS011;54543;50.712;6.070;2023-06-26T14:14:04;2.55;;;1.60;;
67747;SDS011;54543;50.712;6.070;2023-06-26T14:16:29;4.43;;;1.27;;
67747;SDS011;54543;50.712;6.070;2023-06-26T14:18:55;2.95;;;1.48;;
67747;SDS011;54543;50.712;6.070;2023-06-26T14:21:21;4.60;;;1.52;;
67747;SDS011;54543;50.712;6.070;2023-06-26T14:23:47;2.95;;;1.45;;
67747;SDS011;54543;50.712;6.070;2023-06-26T14:26:12;2.72;;;1.55;;
67747;SDS011;54543;50.712;6.070;2023-06-26T14:28:38;5.68;;;1.83;;
67747;SDS011;54543;50.712;6.070;2023-06-26T14:31:04;5.55;;;1.92;;
67747;SDS011;54543;50.712;6.070;2023-06-26T14:33:30;2.58;;;1.55;;
67747;SDS011;54543;50.712;6.070;2023-06-26T14:35:55;2.03;;;1.42;;
67747;SDS011;54543;50.712;6.070;2023-06-26T14:38:21;4.72;;;1.83;;
67747;SDS011;54543;50.712;6.070;2023-06-26T14:40:46;4.28;;;1.80;;
67747;SDS011;54543;50.712;6.070;2023-06-26T14:43:12;1.95;;;1.58;;
67747;SDS011;54543;50.712;6.070;2023-06-26T14:45:38;2.67;;;1.67;;
67747;SDS011;54543;50.712;6.070;2023-06-26T14:48:03;2.75;;;1.58;;
67747;SDS011;54543;50.712;6.070;2023-06-26T14:50:29;3.58;;;1.80;;
67747;SDS011;54543;50.712;6.070;2023-06-26T14:52:54;4.53;;;2.20;;
67747;SDS011;54543;50.712;6.070;2023-06-26T14:55:20;5.05;;;1.70;;
67747;SDS011;54543;50.712;6.070;2023-06-26T14:57:46;2.90;;;1.75;;
67747;SDS011;54543;50.712;6.070;2023-06-26T15:00:11;5.05;;;1.60;;
67747;SDS011;54543;50.712;6.070;2023-06-26T15:02:38;1.98;;;1.40;;
67747;SDS011;54543;50.712;6.070;2023-06-26T15:05:03;2.50;;;1.50;;